Time;durP1;ratioP1;P1;durP2;ratioP2;P2;SDS_P1;SDS_P2;PMS_P1;PMS_P2;Temp;Humidity;BMP_temperature;BMP_pressure;BME280_temperature;BME280_humidity;BME280_pressure;Samples;Min_cycle;Max_cycle;Signal;HPM_P1;HPM_P2
2021/12/17 00:04:57;;;;;;;21.70;11.23;;;5.90;99.90;;;;;;5052787;28;20233;-71
2021/12/17 00:07:25;;;;;;;22.40;11.80;;;6.00;99.90;;;;;;5036831;28;20207;-77
2021/12/17 00:09:53;;;;;;;24.10;11.17;;;5.90;99.90;;;;;;5055911;28;20195;-71
2021/12/17 00:12:21;;;;;;;24.13;11.53;;;5.90;99.90;;;;;;5048816;28;20707;-74
2021/12/17 00:14:49;;;;;;;20.97;11.33;;;5.90;99.90;;;;;;5058603;28;20202;-75
2021/12/17 00:17:21;;;;;;;19.27;10.10;;;5.90;99.90;;;;;;5034470;28;20286;-74
2021/12/17 00:20:21;;;;;;;24.97;11.40;;;5.90;99.90;;;;;;5039928;28;20211;-74
2021/12/17 00:52:27;;;;;;;14.97;9.50;;;6.00;99.90;;;;;;5042336;28;20210;-73
2021/12/17 00:54:53;;;;;;;22.13;10.00;;;6.00;99.90;;;;;;5058316;28;20279;-76
2021/12/17 00:57:23;;;;;;;17.83;10.53;;;5.90;99.90;;;;;;5043535;28;20672;-75
2021/12/17 00:59:51;;;;;;;18.07;11.10;;;5.90;99.90;;;;;;5036908;28;20310;-74
2021/12/17 01:02:24;;;;;;;18.13;10.53;;;6.00;99.90;;;;;;5047122;28;20337;-73
2021/12/17 01:04:54;;;;;;;20.67;9.53;;;6.00;99.90;;;;;;5026396;28;20661;-73
2021/12/17 01:07:23;;;;;;;19.77;8.77;;;6.00;99.90;;;;;;5051906;28;20669;-74
2021/12/17 01:09:50;;;;;;;21.27;10.40;;;6.00;99.90;;;;;;5037558;28;20221;-75
2021/12/17 01:12:17;;;;;;;20.00;10.27;;;5.90;99.90;;;;;;5037370;28;20661;-76
2021/12/17 01:14:43;;;;;;;20.40;10.50;;;5.90;99.90;;;;;;5043511;28;20182;-76
2021/12/17 01:17:10;;;;;;;19.27;9.43;;;6.00;99.90;;;;;;5051438;28;20208;-76
2021/12/17 01:25:12;;;;;;;22.37;10.07;;;5.90;99.90;;;;;;5039954;28;20214;-74
2021/12/17 01:35:50;;;;;;;21.13;9.13;;;5.90;99.90;;;;;;5043554;28;20248;-76
2021/12/17 01:41:26;;;;;;;19.63;9.70;;;5.90;99.90;;;;;;5044383;28;20640;-74
2021/12/17 01:43:52;;;;;;;19.97;9.13;;;5.90;99.90;;;;;;5043668;28;20214;-76
2021/12/17 01:46:21;;;;;;;23.30;10.07;;;5.90;99.90;;;;;;5046641;28;20664;-77
2021/12/17 01:49:23;;;;;;;21.20;10.73;;;5.90;99.90;;;;;;5043303;28;20248;-78
2021/12/17 01:59:59;;;;;;;17.90;9.17;;;5.90;99.90;;;;;;5045758;28;20668;-80
2021/12/17 02:02:27;;;;;;;21.13;9.27;;;5.90;99.90;;;;;;5036525;28;20313;-75
2021/12/17 02:04:52;;;;;;;23.10;9.60;;;5.90;99.90;;;;;;5043651;28;20188;-72
2021/12/17 02:07:18;;;;;;;16.93;8.67;;;5.80;99.90;;;;;;5042863;28;20210;-72
2021/12/17 02:12:54;;;;;;;23.33;9.97;;;5.80;99.90;;;;;;5040980;28;20203;-73
2021/12/17 02:28:59;;;;;;;19.00;8.13;;;5.90;99.90;;;;;;5038609;28;20211;-75
2021/12/17 02:33:53;;;;;;;16.63;9.10;;;5.80;99.90;;;;;;5037717;28;20200;-76
2021/12/17 02:36:23;;;;;;;18.37;7.73;;;5.80;99.90;;;;;;5044414;28;20274;-79
2021/12/17 02:38:48;;;;;;;18.73;8.50;;;5.80;99.90;;;;;;5043559;28;20226;-78
2021/12/17 02:45:32;;;;;;;19.60;8.80;;;5.80;99.90;;;;;;5038777;28;20218;-75
2021/12/17 02:46:50;;;;;;;16.97;8.53;;;5.80;99.90;;;;;;5036328;28;20200;-75
2021/12/17 02:49:15;;;;;;;18.80;7.87;;;5.80;99.90;;;;;;5044119;28;20237;-75
2021/12/17 02:51:42;;;;;;;20.47;8.23;;;5.80;99.90;;;;;;5044004;28;20201;-75
2021/12/17 02:54:08;;;;;;;13.70;7.83;;;5.80;99.90;;;;;;5043926;28;21044;-74
2021/12/17 02:56:34;;;;;;;17.83;10.30;;;5.80;99.90;;;;;;5041731;28;20211;-75
2021/12/17 02:59:02;;;;;;;16.70;7.87;;;5.80;99.90;;;;;;5040851;28;20190;-74
2021/12/17 03:01:28;;;;;;;17.33;8.67;;;5.80;99.90;;;;;;5040753;28;20274;-73
2021/12/17 03:03:55;;;;;;;14.03;8.50;;;5.80;99.90;;;;;;5040225;28;20208;-79
2021/12/17 03:06:21;;;;;;;22.87;9.13;;;5.80;99.90;;;;;;5034988;28;20274;-68
2021/12/17 03:08:47;;;;;;;16.57;7.57;;;5.80;99.90;;;;;;5037439;28;20203;-68
2021/12/17 03:11:14;;;;;;;21.03;8.70;;;5.80;99.90;;;;;;5050626;28;20225;-72
2021/12/17 03:13:43;;;;;;;13.13;8.57;;;5.80;99.90;;;;;;5038129;28;20328;-68
2021/12/17 03:16:25;;;;;;;20.57;10.00;;;5.80;99.90;;;;;;5047525;28;20291;-69
2021/12/17 03:19:27;;;;;;;16.80;8.57;;;5.80;99.90;;;;;;5033360;28;20625;-69
2021/12/17 03:24:37;;;;;;;14.27;7.27;;;5.80;99.90;;;;;;5038761;28;20186;-69
2021/12/17 03:27:04;;;;;;;19.63;9.27;;;5.80;99.90;;;;;;5041068;28;20564;-68
2021/12/17 03:29:30;;;;;;;19.47;8.53;;;5.80;99.90;;;;;;5033946;28;20228;-68
2021/12/17 03:31:57;;;;;;;16.43;8.37;;;5.80;99.90;;;;;;5055270;28;20203;-68
2021/12/17 03:34:22;;;;;;;20.73;8.17;;;5.80;99.90;;;;;;5050383;28;20220;-68
2021/12/17 03:36:56;;;;;;;16.17;8.40;;;5.80;99.90;;;;;;5039083;28;20704;-67
2021/12/17 03:39:27;;;;;;;19.97;9.13;;;5.80;99.90;;;;;;5033174;28;20211;-70
2021/12/17 03:41:53;;;;;;;16.63;9.00;;;5.70;99.90;;;;;;5045593;28;20252;-70
2021/12/17 03:44:20;;;;;;;18.10;8.03;;;5.80;99.90;;;;;;5040325;28;20195;-67
2021/12/17 03:46:48;;;;;;;16.03;8.20;;;5.80;99.90;;;;;;5044117;28;20203;-68
2021/12/17 03:49:15;;;;;;;27.10;9.50;;;5.70;99.90;;;;;;5059819;28;20199;-71
2021/12/17 03:51:50;;;;;;;16.57;7.80;;;5.80;99.90;;;;;;5047150;28;20207;-70
2021/12/17 03:54:17;;;;;;;17.27;8.30;;;5.70;99.90;;;;;;5043242;28;20717;-68
2021/12/17 03:56:43;;;;;;;22.17;9.33;;;5.70;99.90;;;;;;5036284;28;20215;-71
2021/12/17 03:59:10;;;;;;;24.83;10.03;;;5.70;99.90;;;;;;5042462;28;20734;-70
2021/12/17 04:01:40;;;;;;;20.53;8.07;;;5.70;99.90;;;;;;5030213;28;20794;-69
2021/12/17 04:04:06;;;;;;;20.93;8.93;;;5.70;99.90;;;;;;5046799;28;20191;-70
2021/12/17 04:06:32;;;;;;;20.70;8.50;;;5.70;99.90;;;;;;5037986;28;20579;-68
2021/12/17 04:08:57;;;;;;;22.47;8.23;;;5.70;99.90;;;;;;5043427;28;20191;-72
2021/12/17 04:11:23;;;;;;;22.60;8.67;;;5.70;99.90;;;;;;5051524;28;20206;-69
2021/12/17 04:13:54;;;;;;;19.93;8.60;;;5.70;99.90;;;;;;5045409;28;20265;-71
2021/12/17 04:16:25;;;;;;;16.13;8.20;;;5.70;99.90;;;;;;5034295;28;20660;-70
2021/12/17 04:18:51;;;;;;;15.23;7.77;;;5.70;99.90;;;;;;5048112;28;20196;-71
2021/12/17 04:21:17;;;;;;;17.70;8.27;;;5.70;99.90;;;;;;5039877;28;20203;-74
2021/12/17 04:23:44;;;;;;;16.70;8.23;;;5.80;99.90;;;;;;5041038;28;20190;-73
2021/12/17 04:26:11;;;;;;;21.67;7.63;;;5.70;99.90;;;;;;5042916;28;20669;-71
2021/12/17 04:28:42;;;;;;;17.90;8.07;;;5.70;99.90;;;;;;5040209;28;20186;-72
2021/12/17 04:31:08;;;;;;;12.07;8.23;;;5.70;99.90;;;;;;5040629;28;20214;-67
2021/12/17 04:33:33;;;;;;;21.80;8.77;;;5.70;99.90;;;;;;5043348;28;20241;-68
2021/12/17 04:35:59;;;;;;;19.40;7.40;;;5.80;99.90;;;;;;5038021;28;20207;-68
2021/12/17 04:38:26;;;;;;;20.10;8.73;;;5.80;99.90;;;;;;5042393;28;20186;-69
2021/12/17 04:40:53;;;;;;;25.73;8.73;;;5.70;99.90;;;;;;5038493;28;20215;-71
2021/12/17 04:43:48;;;;;;;22.20;8.20;;;5.80;99.90;;;;;;5042738;28;20175;-70
2021/12/17 04:46:38;;;;;;;20.90;9.43;;;5.80;99.90;;;;;;5038193;28;20673;-71
2021/12/17 04:57:20;;;;;;;22.70;8.47;;;5.80;99.90;;;;;;5036024;28;20247;-72
2021/12/17 04:57:36;;;;;;;16.73;8.03;;;5.80;99.90;;;;;;5042799;28;20221;-64
2021/12/17 05:00:18;;;;;;;19.57;8.10;;;5.80;99.90;;;;;;5042004;28;20676;-64
2021/12/17 05:02:51;;;;;;;22.23;8.33;;;6.00;99.90;;;;;;5041459;28;20225;-66
2021/12/17 05:05:18;;;;;;;19.00;7.80;;;6.30;99.90;;;;;;5040684;28;20294;-66
2021/12/17 05:07:51;;;;;;;17.07;8.43;;;6.40;99.90;;;;;;5039709;28;20182;-64
2021/12/17 05:18:33;;;;;;;12.30;7.37;;;6.60;99.90;;;;;;5039045;28;20190;-63
2021/12/17 05:21:02;;;;;;;16.60;6.83;;;6.60;99.90;;;;;;5039120;28;20254;-65
2021/12/17 05:23:32;;;;;;;19.03;7.80;;;6.50;99.90;;;;;;5032375;28;20187;-65
2021/12/17 05:26:00;;;;;;;15.27;8.63;;;6.30;99.90;;;;;;5033739;28;20290;-65
2021/12/17 05:28:26;;;;;;;14.47;8.67;;;6.20;99.90;;;;;;5037463;28;20175;-65
2021/12/17 05:30:54;;;;;;;19.13;8.07;;;6.10;99.90;;;;;;5055713;28;20202;-64
2021/12/17 05:33:21;;;;;;;20.47;9.53;;;6.00;99.90;;;;;;5028924;28;20227;-64
2021/12/17 05:35:47;;;;;;;17.97;9.17;;;6.00;99.90;;;;;;5056292;28;20740;-65
2021/12/17 05:38:14;;;;;;;20.17;8.83;;;5.90;99.90;;;;;;5033531;28;20227;-65
2021/12/17 05:40:41;;;;;;;14.97;8.00;;;6.00;99.90;;;;;;5042399;28;20230;-66
2021/12/17 05:43:07;;;;;;;22.10;8.07;;;5.90;99.90;;;;;;5031040;28;20198;-66
2021/12/17 05:48:09;;;;;;;19.30;8.00;;;5.80;99.90;;;;;;5036304;28;20163;-64
2021/12/17 05:50:37;;;;;;;19.07;7.87;;;5.80;99.90;;;;;;5045661;28;20198;-64
2021/12/17 05:53:04;;;;;;;19.73;7.57;;;5.80;99.90;;;;;;5038777;28;20226;-65
2021/12/17 05:55:29;;;;;;;16.97;7.80;;;5.70;99.90;;;;;;5038506;28;20207;-64
2021/12/17 05:57:55;;;;;;;14.30;7.90;;;5.70;99.90;;;;;;5039703;28;20682;-64
2021/12/17 06:00:22;;;;;;;14.17;8.27;;;5.70;99.90;;;;;;5059077;28;20217;-63
2021/12/17 06:02:49;;;;;;;15.37;9.07;;;5.60;99.90;;;;;;5032925;28;20924;-63
2021/12/17 06:05:14;;;;;;;12.00;7.50;;;5.60;99.90;;;;;;5043589;28;20713;-64
2021/12/17 06:07:40;;;;;;;15.73;7.23;;;5.60;99.90;;;;;;5031982;28;20183;-64
2021/12/17 06:10:08;;;;;;;27.20;8.43;;;5.60;99.90;;;;;;5053514;28;20202;-64
2021/12/17 06:12:35;;;;;;;24.10;8.10;;;5.60;99.90;;;;;;5027317;28;20235;-64
2021/12/17 06:15:05;;;;;;;13.87;7.23;;;5.60;99.90;;;;;;5063510;28;20218;-63
2021/12/17 06:17:31;;;;;;;20.57;7.77;;;5.60;99.90;;;;;;5031804;28;20206;-64
2021/12/17 06:19:57;;;;;;;12.20;8.00;;;5.60;99.90;;;;;;5050484;28;20268;-64
2021/12/17 06:22:23;;;;;;;19.40;7.97;;;5.60;99.90;;;;;;5033181;28;20392;-64
2021/12/17 06:24:48;;;;;;;17.03;7.90;;;5.60;99.90;;;;;;5055390;28;20191;-64
2021/12/17 06:27:18;;;;;;;14.97;6.37;;;5.60;99.90;;;;;;5032298;28;20552;-65
2021/12/17 06:29:45;;;;;;;18.43;8.33;;;5.60;99.90;;;;;;5060461;28;20199;-64
2021/12/17 06:32:11;;;;;;;17.10;7.40;;;5.60;99.90;;;;;;5038785;28;20206;-64
2021/12/17 06:34:38;;;;;;;15.23;7.40;;;5.50;99.90;;;;;;5050801;28;20218;-63
2021/12/17 06:37:05;;;;;;;16.97;6.73;;;5.60;99.90;;;;;;5037202;28;20207;-63
2021/12/17 06:39:33;;;;;;;15.67;7.23;;;5.60;99.90;;;;;;5049088;28;20223;-64
2021/12/17 06:41:59;;;;;;;18.27;7.20;;;5.50;99.90;;;;;;5033689;28;20330;-63
2021/12/17 06:44:25;;;;;;;18.77;8.07;;;5.50;99.90;;;;;;5062606;28;20194;-63
2021/12/17 06:47:03;;;;;;;16.23;7.83;;;5.50;99.90;;;;;;5037969;28;20204;-63
2021/12/17 07:06:01;;;;;;;10.07;7.13;;;5.60;99.90;;;;;;5036463;28;20205;-64
2021/12/17 07:08:59;;;;;;;22.60;7.60;;;5.60;99.90;;;;;;5035352;28;20281;-64
2021/12/17 07:17:13;;;;;;;13.50;6.67;;;5.60;99.90;;;;;;5025476;28;20210;-64
2021/12/17 07:22:42;;;;;;;19.77;7.63;;;5.60;99.90;;;;;;5035493;28;20241;-65
2021/12/17 07:32:08;;;;;;;17.83;7.13;;;5.70;99.90;;;;;;5035672;28;20256;-64
2021/12/17 07:33:39;;;;;;;21.57;8.37;;;5.70;99.90;;;;;;5041789;28;20296;-63
2021/12/17 07:36:17;;;;;;;12.87;7.13;;;5.70;99.90;;;;;;5035010;28;20575;-62
2021/12/17 07:38:50;;;;;;;14.17;7.20;;;5.70;99.90;;;;;;5037066;28;20715;-63
2021/12/17 07:41:16;;;;;;;16.37;7.23;;;5.70;99.90;;;;;;5030522;28;20219;-63
2021/12/17 07:43:52;;;;;;;13.27;7.37;;;5.70;99.90;;;;;;5056799;28;20274;-63
2021/12/17 07:46:19;;;;;;;15.47;6.63;;;5.70;99.90;;;;;;5035105;28;20298;-63
2021/12/17 07:48:44;;;;;;;20.40;7.43;;;5.70;99.90;;;;;;5046120;28;20191;-62
2021/12/17 07:51:13;;;;;;;18.00;6.80;;;5.80;99.90;;;;;;5052261;28;20371;-63
2021/12/17 07:53:40;;;;;;;17.57;7.67;;;5.70;99.90;;;;;;5051342;28;20226;-63
2021/12/17 07:56:08;;;;;;;12.40;8.30;;;5.70;99.90;;;;;;5036718;28;20292;-63
2021/12/17 07:58:34;;;;;;;15.87;6.90;;;5.70;99.90;;;;;;5041890;28;20215;-63
2021/12/17 08:01:00;;;;;;;16.13;6.57;;;5.70;99.90;;;;;;5053577;28;20214;-64
2021/12/17 08:03:26;;;;;;;21.00;7.73;;;5.80;99.90;;;;;;5032918;28;20638;-66
2021/12/17 08:05:53;;;;;;;16.67;7.03;;;5.80;99.90;;;;;;5050180;28;20198;-67
2021/12/17 08:08:19;;;;;;;11.07;6.20;;;5.80;99.90;;;;;;5030640;28;20188;-65
2021/12/17 08:10:47;;;;;;;20.50;6.27;;;5.90;99.90;;;;;;5057206;28;20226;-62
2021/12/17 08:13:21;;;;;;;19.43;7.53;;;5.80;99.90;;;;;;5034875;28;20187;-62
2021/12/17 08:16:13;;;;;;;21.67;6.83;;;5.80;99.90;;;;;;5034074;28;20248;-62
2021/12/17 08:26:55;;;;;;;14.70;7.37;;;5.90;99.90;;;;;;5026621;28;20211;-63
2021/12/17 08:31:59;;;;;;;15.93;7.80;;;5.90;99.90;;;;;;5038193;28;20202;-65
2021/12/17 08:34:24;;;;;;;18.03;7.87;;;5.90;99.90;;;;;;5054752;28;20314;-65
2021/12/17 08:36:50;;;;;;;13.83;7.47;;;5.90;99.90;;;;;;5038690;28;20237;-65
2021/12/17 08:39:16;;;;;;;16.67;7.10;;;5.90;99.90;;;;;;5057187;28;20631;-65
2021/12/17 08:41:42;;;;;;;11.80;6.43;;;6.00;99.90;;;;;;5039487;28;20715;-64
2021/12/17 08:44:08;;;;;;;15.60;6.97;;;6.00;99.90;;;;;;5062453;28;20194;-63
2021/12/17 08:46:35;;;;;;;14.27;7.27;;;5.90;99.90;;;;;;5039389;28;20206;-63
2021/12/17 08:49:01;;;;;;;13.80;5.30;;;5.90;99.90;;;;;;5044593;28;20281;-62
2021/12/17 08:51:26;;;;;;;13.33;6.43;;;6.00;99.90;;;;;;5050163;28;20290;-62
2021/12/17 08:53:52;;;;;;;11.90;6.13;;;6.00;99.90;;;;;;5060325;28;20633;-62
2021/12/17 08:56:22;;;;;;;12.07;6.83;;;6.00;99.90;;;;;;5037305;28;20630;-62
2021/12/17 08:58:51;;;;;;;12.37;5.97;;;5.90;99.90;;;;;;5061091;28;20203;-62
2021/12/17 09:01:17;;;;;;;13.70;5.00;;;5.90;99.90;;;;;;5053226;28;20222;-64
2021/12/17 09:03:42;;;;;;;15.20;5.87;;;6.00;99.90;;;;;;5064756;28;20679;-63
2021/12/17 09:06:08;;;;;;;14.27;6.17;;;6.00;99.90;;;;;;5041640;28;20201;-63
2021/12/17 09:08:33;;;;;;;14.03;6.03;;;6.00;99.90;;;;;;5050320;28;20285;-65
2021/12/17 09:10:59;;;;;;;12.30;6.57;;;6.00;99.90;;;;;;5038089;28;20203;-62
2021/12/17 09:13:25;;;;;;;13.70;6.43;;;6.00;99.90;;;;;;5037570;28;20179;-63
2021/12/17 09:15:56;;;;;;;20.53;6.33;;;6.10;99.90;;;;;;5050270;28;20202;-64
2021/12/17 09:18:21;;;;;;;14.40;6.30;;;6.10;99.90;;;;;;5028579;28;20554;-64
2021/12/17 09:20:47;;;;;;;20.23;6.60;;;6.10;99.90;;;;;;5056202;28;20210;-64
2021/12/17 09:23:13;;;;;;;25.23;6.70;;;6.10;99.90;;;;;;5034167;28;20179;-65
2021/12/17 09:25:39;;;;;;;17.13;5.80;;;6.10;99.90;;;;;;5042811;28;20199;-64
2021/12/17 09:28:05;;;;;;;14.30;6.33;;;6.10;99.90;;;;;;5032966;28;20221;-64
2021/12/17 09:30:31;;;;;;;14.33;5.43;;;6.10;99.90;;;;;;5052238;28;20751;-65
2021/12/17 09:32:56;;;;;;;10.53;4.97;;;6.10;99.90;;;;;;5031609;28;20225;-64
2021/12/17 09:35:24;;;;;;;13.80;5.33;;;6.10;99.90;;;;;;5059445;28;20905;-65
2021/12/17 09:37:49;;;;;;;11.23;5.47;;;6.20;99.90;;;;;;5036837;28;20595;-64
2021/12/17 09:40:15;;;;;;;11.07;5.03;;;6.20;99.90;;;;;;5049647;28;20210;-64
2021/12/17 09:42:43;;;;;;;10.93;5.13;;;6.20;99.90;;;;;;5034836;28;20260;-64
2021/12/17 09:45:09;;;;;;;14.27;5.37;;;6.20;99.90;;;;;;5048783;28;20190;-65
2021/12/17 09:47:34;;;;;;;11.33;6.00;;;6.20;99.90;;;;;;5034511;28;20537;-65
2021/12/17 09:50:00;;;;;;;13.50;5.30;;;6.20;99.90;;;;;;5049069;28;20190;-64
2021/12/17 09:52:26;;;;;;;9.80;4.77;;;6.30;99.90;;;;;;5037831;28;20207;-64
2021/12/17 09:54:52;;;;;;;15.47;5.83;;;6.20;99.90;;;;;;5054693;28;20227;-65
2021/12/17 09:57:20;;;;;;;13.57;6.00;;;6.20;99.90;;;;;;5026612;28;20243;-65
2021/12/17 09:59:46;;;;;;;13.53;4.87;;;6.30;99.90;;;;;;5052043;28;20249;-64
2021/12/17 10:02:11;;;;;;;12.67;4.90;;;6.30;99.90;;;;;;5038831;28;20245;-64
2021/12/17 10:04:40;;;;;;;7.53;4.93;;;6.30;99.90;;;;;;5056664;28;20190;-64
2021/12/17 10:07:26;;;;;;;9.97;4.80;;;6.30;99.90;;;;;;5039618;28;20195;-65
2021/12/17 10:10:01;;;;;;;12.73;4.77;;;6.30;99.90;;;;;;5051430;28;20274;-65
2021/12/17 10:12:32;;;;;;;11.20;4.10;;;6.40;99.90;;;;;;5032541;28;20202;-64
2021/12/17 10:15:09;;;;;;;10.73;4.43;;;6.40;99.90;;;;;;5054436;28;20568;-64
2021/12/17 10:17:49;;;;;;;15.03;4.73;;;6.30;99.90;;;;;;5038166;28;20186;-64
2021/12/17 10:20:15;;;;;;;15.03;5.07;;;6.30;99.90;;;;;;5045639;28;20217;-64
2021/12/17 10:22:44;;;;;;;12.80;4.63;;;6.30;99.90;;;;;;5034667;28;20179;-64
2021/12/17 10:25:11;;;;;;;10.90;4.83;;;6.30;99.90;;;;;;5054936;28;20194;-62
2021/12/17 10:27:39;;;;;;;11.60;4.17;;;6.40;99.90;;;;;;5034129;28;20178;-64
2021/12/17 10:30:23;;;;;;;14.43;4.93;;;6.40;99.90;;;;;;5053693;28;20191;-65
2021/12/17 10:32:53;;;;;;;11.03;4.80;;;6.40;99.90;;;;;;5039617;28;20268;-65
2021/12/17 10:35:24;;;;;;;9.33;4.13;;;6.40;99.90;;;;;;5048601;28;20188;-66
2021/12/17 10:37:56;;;;;;;15.43;5.23;;;6.40;99.90;;;;;;5039971;28;20197;-64
2021/12/17 10:40:26;;;;;;;6.80;4.27;;;6.40;99.90;;;;;;5027514;28;20218;-64
2021/12/17 10:43:16;;;;;;;10.63;4.10;;;6.40;99.90;;;;;;5035657;28;20183;-64
2021/12/17 10:45:56;;;;;;;12.13;5.33;;;6.50;99.90;;;;;;5040229;28;20672;-64
2021/12/17 10:48:25;;;;;;;7.30;3.47;;;6.50;99.90;;;;;;5031093;28;20230;-65
2021/12/17 10:51:12;;;;;;;8.43;4.30;;;6.50;99.90;;;;;;5058984;28;20588;-64
2021/12/17 10:53:37;;;;;;;11.13;5.03;;;6.50;99.90;;;;;;5059236;28;20237;-64
2021/12/17 10:56:03;;;;;;;13.60;3.80;;;6.50;99.90;;;;;;5041978;28;20203;-65
2021/12/17 10:58:29;;;;;;;12.47;5.20;;;6.60;99.90;;;;;;5040557;28;20728;-64
2021/12/17 11:00:59;;;;;;;14.57;4.33;;;6.60;99.90;;;;;;5041919;28;20302;-65
2021/12/17 11:03:25;;;;;;;11.57;3.90;;;6.70;99.90;;;;;;5044001;28;20478;-64
2021/12/17 11:05:51;;;;;;;7.90;3.63;;;6.70;99.90;;;;;;5058106;28;20195;-64
2021/12/17 11:08:28;;;;;;;11.47;4.40;;;6.70;99.90;;;;;;5031702;28;20191;-64
2021/12/17 11:10:58;;;;;;;10.37;3.80;;;6.70;99.90;;;;;;5039049;28;20283;-64
2021/12/17 11:13:25;;;;;;;8.83;3.77;;;6.70;99.90;;;;;;5031915;28;20211;-63
2021/12/17 11:15:52;;;;;;;9.47;5.33;;;6.80;99.90;;;;;;5042685;28;20203;-64
2021/12/17 11:18:18;;;;;;;13.37;4.70;;;6.70;99.90;;;;;;5042756;28;20229;-64
2021/12/17 11:20:45;;;;;;;7.23;3.53;;;6.80;99.90;;;;;;5040195;28;20277;-64
2021/12/17 11:23:14;;;;;;;10.90;4.20;;;6.80;99.90;;;;;;5037841;28;20194;-64
2021/12/17 11:25:42;;;;;;;9.47;3.80;;;6.80;99.90;;;;;;5047239;28;20196;-65
2021/12/17 11:28:10;;;;;;;9.03;4.83;;;6.80;99.90;;;;;;5035146;28;20245;-64
2021/12/17 11:30:40;;;;;;;7.50;3.40;;;6.70;99.90;;;;;;5054404;28;20203;-65
2021/12/17 11:33:06;;;;;;;8.50;3.87;;;6.70;99.90;;;;;;5032727;28;20187;-64
2021/12/17 11:35:34;;;;;;;7.90;3.27;;;6.70;99.90;;;;;;5043028;28;20229;-64
2021/12/17 11:38:07;;;;;;;7.87;3.17;;;6.70;99.90;;;;;;5036076;28;20191;-64
2021/12/17 11:41:06;;;;;;;7.83;3.70;;;6.70;99.90;;;;;;5035104;28;20314;-63
2021/12/17 11:43:49;;;;;;;6.80;3.40;;;6.80;99.90;;;;;;5039212;28;20183;-63
2021/12/17 11:46:17;;;;;;;9.47;3.73;;;6.80;99.90;;;;;;5035752;28;20299;-64
2021/12/17 11:49:12;;;;;;;10.30;4.87;;;6.80;99.90;;;;;;5047650;28;20249;-64
2021/12/17 11:51:38;;;;;;;9.67;3.40;;;6.90;99.90;;;;;;5032502;28;20211;-64
2021/12/17 11:54:15;;;;;;;6.53;3.50;;;6.90;99.90;;;;;;5059548;28;20242;-64
2021/12/17 11:56:48;;;;;;;11.10;3.70;;;6.90;99.90;;;;;;5024539;28;20206;-64
2021/12/17 11:59:30;;;;;;;11.23;3.77;;;6.90;99.90;;;;;;5042323;28;20198;-64
2021/12/17 12:02:15;;;;;;;11.67;3.67;;;6.90;99.90;;;;;;5027710;28;20313;-64
2021/12/17 12:04:59;;;;;;;10.17;3.60;;;6.90;99.90;;;;;;5036964;28;20187;-63
2021/12/17 12:07:24;;;;;;;11.03;3.53;;;6.90;99.90;;;;;;5024473;28;20230;-64
2021/12/17 12:09:58;;;;;;;6.30;2.83;;;6.90;99.90;;;;;;5048565;28;20758;-64
2021/12/17 12:12:38;;;;;;;8.97;3.67;;;6.90;99.90;;;;;;5030147;28;20214;-64
2021/12/17 12:15:27;;;;;;;5.20;3.03;;;6.80;99.90;;;;;;5031662;28;20444;-64
2021/12/17 12:18:06;;;;;;;9.20;3.30;;;6.80;99.90;;;;;;5033544;28;20188;-63
2021/12/17 12:20:43;;;;;;;7.87;2.93;;;6.80;99.90;;;;;;5035277;28;20700;-64
2021/12/17 12:23:38;;;;;;;8.87;3.63;;;6.90;99.90;;;;;;5032268;28;20264;-64
2021/12/17 12:26:03;;;;;;;10.37;3.13;;;6.90;99.90;;;;;;5036432;28;20291;-64
2021/12/17 12:28:47;;;;;;;10.57;3.20;;;6.90;99.90;;;;;;5032218;28;20684;-64
2021/12/17 12:31:25;;;;;;;11.50;3.13;;;6.80;99.90;;;;;;5035373;28;20226;-63
2021/12/17 12:36:54;;;;;;;8.87;3.97;;;6.90;99.90;;;;;;5035325;28;20206;-64
2021/12/17 12:39:34;;;;;;;8.60;3.13;;;6.90;99.90;;;;;;5056480;28;20239;-64
2021/12/17 12:42:33;;;;;;;13.17;4.37;;;6.90;99.90;;;;;;5030129;28;20789;-64
2021/12/17 12:44:58;;;;;;;10.63;3.27;;;6.80;99.90;;;;;;5046942;28;20191;-65
2021/12/17 12:47:23;;;;;;;9.00;3.50;;;6.90;99.90;;;;;;5042530;28;20213;-64
2021/12/17 12:50:06;;;;;;;5.60;3.20;;;6.90;99.90;;;;;;5043543;28;20240;-64
2021/12/17 12:52:32;;;;;;;6.03;3.37;;;6.80;99.90;;;;;;5040118;28;20205;-64
2021/12/17 12:54:59;;;;;;;9.43;3.67;;;6.80;99.90;;;;;;5043023;28;20591;-74
2021/12/17 12:57:40;;;;;;;8.40;3.67;;;6.90;99.90;;;;;;5039205;28;20211;-73
2021/12/17 13:00:19;;;;;;;12.03;3.17;;;6.80;99.90;;;;;;5033433;28;20210;-72
2021/12/17 13:02:49;;;;;;;7.13;3.13;;;6.90;99.90;;;;;;5045032;28;20210;-70
2021/12/17 13:05:15;;;;;;;9.63;3.53;;;7.00;99.90;;;;;;5044534;28;20302;-69
2021/12/17 13:07:50;;;;;;;10.53;3.57;;;7.30;99.90;;;;;;5039866;28;20177;-69
2021/12/17 13:10:22;;;;;;;9.90;3.30;;;7.50;99.90;;;;;;5039701;28;20197;-70
2021/12/17 13:13:02;;;;;;;10.60;3.43;;;7.50;99.90;;;;;;5043410;28;20183;-71
2021/12/17 13:15:40;;;;;;;4.37;2.60;;;7.60;99.90;;;;;;5037980;28;20186;-72
2021/12/17 13:21:16;;;;;;;10.00;4.07;;;7.70;99.90;;;;;;5030692;28;20260;-70
2021/12/17 13:23:50;;;;;;;9.00;3.17;;;7.80;99.90;;;;;;5039952;28;20382;-71
2021/12/17 13:26:18;;;;;;;6.83;3.23;;;7.80;99.90;;;;;;5039596;28;20765;-72
2021/12/17 13:28:49;;;;;;;10.27;3.10;;;7.80;99.90;;;;;;5049299;28;20195;-71
2021/12/17 13:31:37;;;;;;;5.53;2.70;;;7.90;99.90;;;;;;5053257;28;20755;-72
2021/12/17 13:34:16;;;;;;;6.47;2.97;;;7.80;99.90;;;;;;5037581;28;20211;-71
2021/12/17 13:37:05;;;;;;;6.33;3.53;;;7.80;99.90;;;;;;5042910;28;20641;-72
2021/12/17 13:39:32;;;;;;;8.40;3.20;;;7.80;99.90;;;;;;5042887;28;20214;-71
2021/12/17 13:41:59;;;;;;;6.43;3.23;;;7.80;99.90;;;;;;5053508;28;20222;-71
2021/12/17 13:44:49;;;;;;;6.43;3.10;;;7.80;99.90;;;;;;5052606;28;20198;-70
2021/12/17 13:47:54;;;;;;;8.87;3.67;;;7.90;99.90;;;;;;5038473;28;20625;-71
2021/12/17 13:50:33;;;;;;;9.63;3.27;;;7.90;99.90;;;;;;5003394;28;20212;-71
2021/12/17 13:53:04;;;;;;;7.47;3.13;;;7.80;99.90;;;;;;5043014;28;20197;-70
2021/12/17 13:55:41;;;;;;;10.80;3.77;;;7.80;99.90;;;;;;5038878;28;23045;-73
2021/12/17 13:58:12;;;;;;;16.23;3.70;;;7.80;99.90;;;;;;5036186;28;20268;-71
2021/12/17 14:00:40;;;;;;;5.70;2.77;;;7.80;99.90;;;;;;5047717;28;20551;-71
2021/12/17 14:03:09;;;;;;;10.53;3.57;;;7.80;99.90;;;;;;5037552;28;20183;-73
2021/12/17 14:05:44;;;;;;;14.07;3.27;;;7.70;99.90;;;;;;5051800;28;20191;-72
2021/12/17 14:08:13;;;;;;;8.00;3.73;;;7.50;99.90;;;;;;5040147;28;20181;-72
2021/12/17 14:10:40;;;;;;;9.00;3.53;;;7.40;99.90;;;;;;5050314;28;20233;-72
2021/12/17 14:13:19;;;;;;;13.57;3.50;;;7.30;99.90;;;;;;5043120;28;20672;-72
2021/12/17 14:15:45;;;;;;;6.43;3.43;;;7.20;99.90;;;;;;5043737;28;20282;-73
2021/12/17 14:18:16;;;;;;;12.80;3.80;;;7.10;99.90;;;;;;5050667;28;20210;-73
2021/12/17 14:20:44;;;;;;;10.97;3.70;;;7.10;99.90;;;;;;5049772;28;20235;-72
2021/12/17 14:23:20;;;;;;;9.27;4.30;;;7.00;99.90;;;;;;5031113;28;20184;-72
2021/12/17 14:25:57;;;;;;;7.43;3.23;;;7.00;99.90;;;;;;5043742;28;20202;-73
2021/12/17 14:28:26;;;;;;;15.00;4.73;;;7.00;99.90;;;;;;5039076;28;20661;-73
2021/12/17 14:30:56;;;;;;;8.07;2.77;;;7.00;99.90;;;;;;5049173;28;20218;-72
2021/12/17 14:33:25;;;;;;;7.13;3.23;;;6.90;99.90;;;;;;5037919;28;20195;-72
2021/12/17 14:36:01;;;;;;;5.00;2.83;;;6.90;99.90;;;;;;5046170;28;20294;-73
2021/12/17 14:38:56;;;;;;;3.53;2.43;;;7.00;99.90;;;;;;5046088;28;20240;-72
2021/12/17 14:41:35;;;;;;;9.40;3.67;;;6.90;99.90;;;;;;5029084;28;20211;-73
2021/12/17 14:44:19;;;;;;;7.30;3.50;;;6.90;99.90;;;;;;5031859;28;20187;-72
2021/12/17 14:47:03;;;;;;;7.53;3.67;;;6.80;99.90;;;;;;5025060;28;20286;-73
2021/12/17 15:00:35;;;;;;;6.07;2.50;;;6.80;99.90;;;;;;5033707;28;20246;-72
2021/12/17 15:03:20;;;;;;;6.67;3.30;;;6.80;99.90;;;;;;5033087;28;20187;-73
2021/12/17 15:05:46;;;;;;;4.33;2.83;;;6.80;99.90;;;;;;5032494;28;20195;-72
2021/12/17 15:08:11;;;;;;;8.90;3.50;;;6.80;99.90;;;;;;5031981;28;20270;-73
2021/12/17 15:10:37;;;;;;;5.77;2.93;;;6.80;99.90;;;;;;5042870;28;20352;-72
2021/12/17 15:13:03;;;;;;;6.50;2.93;;;6.80;99.90;;;;;;5037306;28;20187;-72
2021/12/17 15:15:35;;;;;;;11.43;5.40;;;6.80;99.90;;;;;;5047441;28;20190;-72
2021/12/17 15:18:02;;;;;;;14.43;6.70;;;6.80;99.90;;;;;;5036669;28;20256;-73
2021/12/17 15:20:32;;;;;;;11.37;5.80;;;6.70;99.90;;;;;;5055215;28;20685;-73
2021/12/17 15:23:00;;;;;;;9.50;4.23;;;6.70;99.90;;;;;;5033589;28;20179;-73
2021/12/17 15:25:27;;;;;;;7.97;2.77;;;6.70;99.90;;;;;;5044188;28;20189;-72
2021/12/17 15:27:53;;;;;;;8.50;3.57;;;6.70;99.90;;;;;;5038761;28;20183;-73
2021/12/17 15:30:36;;;;;;;7.87;2.53;;;6.80;99.90;;;;;;5046755;28;20195;-73
2021/12/17 15:33:02;;;;;;;7.03;3.90;;;6.80;99.90;;;;;;5035734;28;20218;-72
2021/12/17 15:35:28;;;;;;;11.93;3.67;;;6.80;99.90;;;;;;5048130;28;20226;-72
2021/12/17 15:37:56;;;;;;;5.63;2.77;;;6.80;99.90;;;;;;5030635;28;20266;-73
2021/12/17 15:40:24;;;;;;;11.90;3.80;;;6.70;99.90;;;;;;5055755;28;20202;-73
2021/12/17 15:42:50;;;;;;;4.17;2.53;;;6.80;99.90;;;;;;5033041;28;20187;-72
2021/12/17 15:45:17;;;;;;;7.80;3.87;;;6.80;99.90;;;;;;5056304;28;20198;-73